createdAt,value
2018-09-03T00:01:07.303Z,3.58
2018-09-03T00:03:35.717Z,3.00
2018-09-03T00:06:04.136Z,3.00
2018-09-03T00:08:32.554Z,3.42
2018-09-03T00:11:00.969Z,3.17
2018-09-03T00:13:29.371Z,2.90
2018-09-03T00:15:57.811Z,3.02
2018-09-03T00:18:26.182Z,3.12
2018-09-03T00:20:54.559Z,3.30
2018-09-03T00:23:23.325Z,2.83
2018-09-03T00:25:51.794Z,3.35
2018-09-03T00:28:20.174Z,3.27
2018-09-03T00:30:48.501Z,3.00
2018-09-03T00:33:22.269Z,3.33
2018-09-03T00:35:55.824Z,3.25
2018-09-03T00:38:29.462Z,2.87
2018-09-03T00:41:03.106Z,2.62
2018-09-03T00:43:36.701Z,2.60
2018-09-03T00:46:10.486Z,3.05
2018-09-03T00:48:38.877Z,3.08
2018-09-03T00:51:07.314Z,3.20
2018-09-03T00:53:35.978Z,3.27
2018-09-03T00:56:04.403Z,3.00
2018-09-03T00:58:32.759Z,3.05
2018-09-03T08:07:51.872Z,9.45
2018-09-03T08:10:20.268Z,8.38
2018-09-03T08:12:48.657Z,9.00
2018-09-03T08:15:16.938Z,8.10
2018-09-03T08:17:45.297Z,8.63
2018-09-03T08:20:14.691Z,8.25
2018-09-03T08:22:43.043Z,8.05
2018-09-03T08:25:11.422Z,8.33
2018-09-03T08:27:39.803Z,8.03
2018-09-03T08:30:08.496Z,8.00
2018-09-03T08:32:36.858Z,7.92
2018-09-03T08:35:05.313Z,8.63
2018-09-03T08:37:33.930Z,7.87
2018-09-03T08:40:02.350Z,9.18
2018-09-03T08:42:30.684Z,7.72
2018-09-03T08:44:59.012Z,9.80
2018-09-03T08:47:27.479Z,9.63
2018-09-03T08:49:56.001Z,9.35
2018-09-03T08:52:24.358Z,11.10
2018-09-03T08:54:53.010Z,8.25
2018-09-03T08:57:21.591Z,8.83
2018-09-03T08:59:49.955Z,11.00
2018-09-03T09:02:18.294Z,9.18
2018-09-03T09:04:46.661Z,9.90
2018-09-03T09:07:15.043Z,12.93
2018-09-03T09:09:43.444Z,11.88
2018-09-03T09:12:12.367Z,11.90
2018-09-03T09:14:40.737Z,11.38
2018-09-03T09:17:09.223Z,10.60
2018-09-03T09:19:37.637Z,11.83
2018-09-03T09:22:06.075Z,12.30
2018-09-03T09:24:34.523Z,11.00
2018-09-03T09:27:02.821Z,10.03
2018-09-03T09:29:31.258Z,10.65
2018-09-03T09:31:59.617Z,11.70
2018-09-03T09:34:27.950Z,11.78
2018-09-03T09:36:56.263Z,10.20
2018-09-03T09:39:24.716Z,14.65
2018-09-03T09:41:53.068Z,11.63
2018-09-03T09:44:21.443Z,10.88
2018-09-03T09:46:49.746Z,9.83
2018-09-03T09:49:18.341Z,11.63
2018-09-03T09:51:46.718Z,11.73
2018-09-03T09:54:15.117Z,11.70
2018-09-03T09:56:43.461Z,11.95
2018-09-03T09:59:11.819Z,12.35
2018-09-03T10:01:40.182Z,11.97
2018-09-03T10:04:08.568Z,11.48
2018-09-03T10:06:36.977Z,12.85
2018-09-03T10:09:07.324Z,10.45
2018-09-03T10:11:35.773Z,24.23
2018-09-03T10:14:04.104Z,12.78
2018-09-03T10:16:32.520Z,12.20
2018-09-03T10:19:01.385Z,12.63
2018-09-03T10:21:29.749Z,13.03
2018-09-03T10:23:58.146Z,12.63
2018-09-03T10:26:26.497Z,13.32
2018-09-03T10:28:54.869Z,11.95
2018-09-03T10:31:23.221Z,11.33
2018-09-03T10:33:51.801Z,12.07
2018-09-03T10:36:21.821Z,11.05
2018-09-03T10:38:50.746Z,12.55
2018-09-03T10:41:19.153Z,11.28
2018-09-03T10:43:47.507Z,11.28
2018-09-03T10:46:15.958Z,12.88
2018-09-03T10:48:44.288Z,12.40
2018-09-03T10:51:12.712Z,11.78
2018-09-03T10:53:41.064Z,14.03
2018-09-03T10:56:09.492Z,13.38
2018-09-03T10:58:37.797Z,12.03
2018-09-03T11:01:06.114Z,10.63
2018-09-03T11:03:35.607Z,14.45
2018-09-03T11:06:03.961Z,13.28
2018-09-03T11:08:32.277Z,12.23
2018-09-03T11:11:01.312Z,12.63
2018-09-03T11:13:29.653Z,13.53
2018-09-03T11:15:58.026Z,14.00
2018-09-03T11:18:27.882Z,14.00
2018-09-03T11:20:56.279Z,16.40
2018-09-03T11:23:25.186Z,15.48
2018-09-03T11:25:53.566Z,15.08
2018-09-03T11:28:21.882Z,13.80
2018-09-03T11:30:50.273Z,14.15
2018-09-03T11:33:19.373Z,13.35
2018-09-03T11:35:47.780Z,14.83
2018-09-03T11:38:16.160Z,16.05
2018-09-03T11:40:44.607Z,13.08
2018-09-03T11:43:12.908Z,15.38
2018-09-03T11:45:41.984Z,15.23
2018-09-03T11:48:10.283Z,14.78
2018-09-03T11:50:38.682Z,15.13
2018-09-03T11:53:07.643Z,15.63
2018-09-03T11:55:36.458Z,15.08
2018-09-03T11:58:05.065Z,14.55
2018-09-03T12:00:34.089Z,13.55
2018-09-03T12:03:02.524Z,11.60
2018-09-03T12:05:30.882Z,13.98
2018-09-03T12:07:59.258Z,18.12
2018-09-03T12:10:27.636Z,15.13
2018-09-03T12:12:56.022Z,15.20
2018-09-03T12:15:33.492Z,14.25
2018-09-03T12:18:01.850Z,15.65
2018-09-03T12:20:30.219Z,14.40
2018-09-03T12:22:58.626Z,15.32
2018-09-03T12:25:26.991Z,14.15
2018-09-03T12:27:55.575Z,13.53
2018-09-03T12:30:23.974Z,13.03
2018-09-03T12:32:52.312Z,12.47
2018-09-03T12:35:20.670Z,13.03
2018-09-03T12:37:49.169Z,12.95
2018-09-03T12:40:17.522Z,13.50
2018-09-03T12:42:46.141Z,13.58
2018-09-03T12:45:14.519Z,13.40
2018-09-03T12:47:42.982Z,13.65
2018-09-03T12:50:11.404Z,12.63
2018-09-03T12:52:39.722Z,13.03
2018-09-03T12:55:08.057Z,11.88
2018-09-03T12:57:36.416Z,12.33
2018-09-03T13:00:05.706Z,14.90
2018-09-03T13:02:39.417Z,12.40
2018-09-03T13:05:01.747Z,15.70
2018-09-03T13:07:30.837Z,14.00
2018-09-03T13:09:59.203Z,12.18
2018-09-03T13:12:27.640Z,11.55
2018-09-03T13:14:55.986Z,12.47
2018-09-03T13:17:24.451Z,11.68
2018-09-03T13:19:52.847Z,11.50
2018-09-03T13:22:21.224Z,12.88
2018-09-03T13:24:49.622Z,12.63
2018-09-03T13:27:18.064Z,11.53
2018-09-03T13:29:46.425Z,12.78
2018-09-03T13:32:14.750Z,11.15
2018-09-03T13:34:43.200Z,12.15
2018-09-03T13:37:11.608Z,12.55
2018-09-03T13:39:39.945Z,12.15
2018-09-03T13:42:08.551Z,13.03
2018-09-03T13:44:36.941Z,11.97
2018-09-03T13:47:05.369Z,11.48
2018-09-03T13:49:33.790Z,11.50
2018-09-03T13:52:02.217Z,11.18
2018-09-03T13:54:30.582Z,11.48
2018-09-03T13:56:59.026Z,11.63
2018-09-03T13:59:27.478Z,11.38
2018-09-03T14:01:56.065Z,11.33
2018-09-03T14:04:24.426Z,10.88
2018-09-03T14:06:53.590Z,10.55
2018-09-03T14:09:21.962Z,11.15
2018-09-03T14:11:50.502Z,10.80
2018-09-03T14:14:19.145Z,10.60
2018-09-03T14:16:47.518Z,10.78
2018-09-03T14:19:15.860Z,10.32
2018-09-03T14:21:44.217Z,8.98
2018-09-03T14:24:12.648Z,9.30
2018-09-03T14:26:41.264Z,10.15
2018-09-03T14:29:09.643Z,10.23
2018-09-03T14:31:38.038Z,8.68
2018-09-03T14:34:06.680Z,10.68
2018-09-03T14:36:35.008Z,12.18
2018-09-03T14:39:04.163Z,9.23
2018-09-03T14:41:32.465Z,9.98
2018-09-03T14:44:00.814Z,9.88
2018-09-03T14:46:29.194Z,9.08
2018-09-03T14:48:57.576Z,9.50
2018-09-03T14:51:26.299Z,8.58
2018-09-03T14:53:54.852Z,8.53
2018-09-03T14:56:23.454Z,9.15
2018-09-03T14:58:51.830Z,8.75
2018-09-03T15:01:20.388Z,8.08
2018-09-03T15:03:48.852Z,8.58
2018-09-03T15:06:17.330Z,8.93
2018-09-03T15:08:45.878Z,8.53
2018-09-03T15:11:14.240Z,8.50
2018-09-03T15:13:42.741Z,9.18
2018-09-03T15:16:11.256Z,8.83
2018-09-03T15:18:39.628Z,10.23
2018-09-03T15:21:08.257Z,9.75
2018-09-03T15:23:36.580Z,8.73
2018-09-03T15:26:05.128Z,9.15
2018-09-03T15:28:33.572Z,9.10
2018-09-03T15:31:01.981Z,9.28
2018-09-03T15:33:30.696Z,8.40
2018-09-03T15:35:59.085Z,8.90
2018-09-03T15:38:27.540Z,9.70
2018-09-03T15:40:55.905Z,9.70
2018-09-03T15:43:24.506Z,8.38
2018-09-03T15:45:52.898Z,9.60
2018-09-03T15:48:21.573Z,9.63
2018-09-03T15:50:50.029Z,9.20
2018-09-03T15:53:18.446Z,10.30
2018-09-03T15:55:47.062Z,9.05
2018-09-03T15:58:15.455Z,8.63
2018-09-03T16:00:43.830Z,9.00
2018-09-03T16:03:12.504Z,9.90
2018-09-03T16:05:40.950Z,10.28
2018-09-03T16:08:09.789Z,9.50
2018-09-03T16:10:38.377Z,8.98
2018-09-03T16:13:06.822Z,8.40
2018-09-03T16:15:35.200Z,9.10
2018-09-03T16:18:04.331Z,8.83
2018-09-03T16:20:32.829Z,9.28
2018-09-03T16:23:01.213Z,8.55
2018-09-03T16:25:29.569Z,8.78
2018-09-03T16:27:58.056Z,9.60
2018-09-03T16:30:26.518Z,9.83
2018-09-03T16:32:55.377Z,9.05
2018-09-03T16:35:23.764Z,9.20
2018-09-03T16:37:52.386Z,9.60
2018-09-03T16:40:20.769Z,9.88
2018-09-03T16:42:49.142Z,8.78
2018-09-03T16:45:17.549Z,9.63
2018-09-03T16:47:46.089Z,9.00
2018-09-03T16:50:14.606Z,8.90
2018-09-03T16:52:42.937Z,9.50
2018-09-03T16:55:11.316Z,10.58
2018-09-03T16:57:40.550Z,9.85
2018-09-03T17:00:09.028Z,9.60
2018-09-03T17:02:40.666Z,19.52
2018-09-03T17:05:09.142Z,11.83
2018-09-03T17:07:38.283Z,13.18
2018-09-03T17:10:06.639Z,11.43
2018-09-03T17:12:35.291Z,18.52
2018-09-03T17:15:03.770Z,9.78
2018-09-03T17:17:32.704Z,9.55
2018-09-03T17:20:01.707Z,9.45
2018-09-03T17:22:30.371Z,9.08
2018-09-03T17:24:58.716Z,8.90
2018-09-03T17:27:27.092Z,9.05
